Time;durP1;ratioP1;P1;durP2;ratioP2;P2;SDS_P1;SDS_P2;PMS_P1;PMS_P2;Temp;Humidity;BMP_temperature;BMP_pressure;BME280_temperature;BME280_humidity;BME280_pressure;Samples;Min_cycle;Max_cycle;Signal;HPM_P1;HPM_P2
2022/12/30 00:01:47;;;;;;;23.57;16.80;;;;;;;7.10;91.38;95661.50;5073367;28;20454;-86
2022/12/30 00:04:14;;;;;;;23.07;16.60;;;;;;;7.05;91.37;95665.31;5073320;28;20470;-86
2022/12/30 00:06:40;;;;;;;23.90;14.43;;;;;;;7.08;91.18;95671.19;5073499;28;20440;-85
2022/12/30 00:09:07;;;;;;;24.23;15.93;;;;;;;7.14;91.05;95664.78;5073327;28;20452;-85
2022/12/30 00:11:35;;;;;;;24.43;17.47;;;;;;;7.15;91.41;95669.91;5073346;28;20434;-86
2022/12/30 00:33:47;;;;;;;20.83;14.33;;;;;;;7.28;91.38;95688.31;5030776;28;20974;-84
2022/12/30 00:36:17;;;;;;;22.83;15.47;;;;;;;7.30;91.54;95690.81;5030776;28;20456;-86
2022/12/30 00:38:45;;;;;;;21.27;15.20;;;;;;;7.30;91.03;95689.06;5030799;28;20495;-86
2022/12/30 00:43:56;;;;;;;26.33;16.10;;;;;;;7.14;90.80;95689.09;5030642;28;21041;-85
2022/12/30 00:46:25;;;;;;;27.00;17.80;;;;;;;7.10;91.21;95682.38;5030613;28;20480;-85
2022/12/30 00:57:05;;;;;;;31.33;21.67;;;;;;;7.00;92.22;95691.69;5072735;28;20468;-85
2022/12/30 00:59:32;;;;;;;28.20;20.23;;;;;;;7.03;92.25;95688.06;5072431;28;20487;-86
2022/12/30 01:02:01;;;;;;;33.40;22.17;;;;;;;7.05;92.53;95699.25;5072549;28;20435;-85
2022/12/30 01:04:28;;;;;;;32.10;22.90;;;;;;;7.09;92.34;95687.69;5072684;28;20483;-85
2022/12/30 01:06:55;;;;;;;36.67;23.53;;;;;;;7.08;92.67;95684.25;5072268;28;20453;-84
2022/12/30 01:09:22;;;;;;;31.17;22.93;;;;;;;7.07;92.88;95686.94;5072120;28;20497;-85
2022/12/30 01:12:07;;;;;;;36.77;23.27;;;;;;;7.09;92.32;95687.69;5072960;28;20435;-86
2022/12/30 01:14:34;;;;;;;30.63;21.07;;;;;;;7.11;92.24;95688.44;5072766;28;20463;-85
2022/12/30 01:17:03;;;;;;;30.03;22.00;;;;;;;7.06;92.25;95680.06;5072327;28;20938;-85
2022/12/30 01:19:30;;;;;;;32.80;20.17;;;;;;;7.14;92.46;95693.47;5073630;28;20462;-85
2022/12/30 01:21:57;;;;;;;29.37;22.10;;;;;;;7.18;92.98;95694.97;5073026;28;20451;-86
2022/12/30 01:24:24;;;;;;;35.57;21.20;;;;;;;7.15;91.94;95687.34;5072578;28;20560;-85
2022/12/30 01:26:51;;;;;;;32.67;21.47;;;;;;;7.14;92.14;95683.03;5072461;28;20921;-86
2022/12/30 01:29:22;;;;;;;32.83;21.30;;;;;;;7.06;92.13;95672.22;5036853;28;20439;-85
2022/12/30 01:31:48;;;;;;;35.57;22.17;;;;;;;7.09;91.83;95677.25;5072540;28;20449;-83
2022/12/30 01:34:17;;;;;;;34.50;22.37;;;;;;;7.11;91.83;95680.63;5072438;28;20450;-85
2022/12/30 01:36:44;;;;;;;40.70;26.80;;;;;;;7.10;91.92;95678.94;5072209;28;20451;-85
2022/12/30 01:39:10;;;;;;;40.90;26.30;;;;;;;7.05;92.18;95663.56;5072407;28;20853;-86
2022/12/30 01:41:37;;;;;;;49.37;30.90;;;;;;;7.01;92.32;95664.66;5072419;28;20500;-86
2022/12/30 01:44:39;;;;;;;63.77;39.10;;;;;;;6.92;92.74;95661.72;5036750;28;20503;-85
2022/12/30 01:47:07;;;;;;;51.07;33.40;;;;;;;6.86;93.03;95656.88;5029704;28;20456;-85
2022/12/30 01:49:41;;;;;;;72.53;33.97;;;;;;;6.88;93.58;95652.41;5030270;28;20453;-85
2022/12/30 01:52:08;;;;;;;44.20;30.33;;;;;;;6.88;93.26;95657.63;5030749;28;20524;-85
2022/12/30 01:54:37;;;;;;;55.37;31.83;;;;;;;6.89;93.30;95667.13;5031071;28;21014;-86
2022/12/30 01:57:06;;;;;;;47.30;26.17;;;;;;;6.93;92.95;95660.81;5030856;28;20853;-85
2022/12/30 01:59:34;;;;;;;31.60;22.10;;;;;;;6.94;93.04;95659.88;5031488;28;20535;-85
2022/12/30 02:02:02;;;;;;;29.70;21.57;;;;;;;6.90;93.15;95668.81;5030907;28;20869;-86
2022/12/30 02:04:30;;;;;;;26.13;18.60;;;;;;;6.90;93.10;95664.44;5030805;28;20495;-84
2022/12/30 02:07:05;;;;;;;25.60;17.60;;;;;;;6.82;93.59;95664.88;5035924;28;20452;-85
2022/12/30 02:09:32;;;;;;;26.30;17.50;;;;;;;6.81;92.38;95654.53;5032351;28;20446;-85
2022/12/30 02:12:01;;;;;;;32.93;17.20;;;;;;;6.85;91.99;95661.25;5030982;28;20453;-85
2022/12/30 02:14:30;;;;;;;25.90;16.57;;;;;;;6.89;91.56;95661.91;5030219;28;20484;-85
2022/12/30 02:17:04;;;;;;;20.33;15.33;;;;;;;6.86;91.76;95652.50;5029744;28;20441;-86
2022/12/30 02:20:06;;;;;;;25.10;16.50;;;;;;;6.90;92.68;95666.19;5029464;28;20475;-86
2022/12/30 02:22:53;;;;;;;28.97;16.47;;;;;;;6.84;93.01;95660.41;4954840;29;20455;-86
2022/12/30 02:25:46;;;;;;;23.23;16.60;;;;;;;6.84;92.75;95660.41;4994441;28;20446;-85
2022/12/30 02:28:37;;;;;;;24.87;16.53;;;;;;;6.80;92.55;95660.69;4952244;28;20512;-86
2022/12/30 02:31:23;;;;;;;26.90;17.03;;;;;;;6.77;93.33;95651.28;4917174;29;20513;-86
2022/12/30 02:33:58;;;;;;;22.67;16.37;;;;;;;6.84;93.39;95657.81;4919684;29;20453;-85
2022/12/30 02:36:31;;;;;;;21.30;15.40;;;;;;;6.88;93.29;95668.06;4916516;29;20989;-85
2022/12/30 02:39:06;;;;;;;22.80;15.63;;;;;;;6.93;92.85;95664.25;4916653;29;20863;-85
2022/12/30 02:44:37;;;;;;;22.43;14.60;;;;;;;6.91;92.92;95649.63;4916019;29;20906;-85
2022/12/30 02:47:11;;;;;;;25.33;15.30;;;;;;;6.86;92.46;95646.44;4901850;29;20454;-85
2022/12/30 02:49:41;;;;;;;24.90;15.20;;;;;;;6.84;91.97;95655.19;4916515;29;20855;-85
2022/12/30 02:52:14;;;;;;;19.17;13.80;;;;;;;6.83;91.96;95656.13;4916258;29;20515;-86
2022/12/30 02:54:42;;;;;;;18.77;15.33;;;;;;;6.83;92.26;95653.53;4886243;29;21032;-85
2022/12/30 02:57:24;;;;;;;20.58;14.02;;;;;;;6.81;92.12;95642.34;4916441;29;20442;-86
2022/12/30 03:05:46;;;;;;;19.90;14.30;;;;;;;6.76;91.72;95648.75;5012990;28;20452;-86
2022/12/30 03:08:22;;;;;;;22.70;16.27;;;;;;;6.68;91.42;95654.41;5044394;28;20445;-86
2022/12/30 03:11:16;;;;;;;23.87;16.50;;;;;;;6.66;92.50;95653.66;5074961;28;20496;-85
2022/12/30 03:13:51;;;;;;;22.77;15.87;;;;;;;6.65;92.22;95649.38;5074825;28;20532;-85
2022/12/30 03:16:24;;;;;;;25.20;16.43;;;;;;;6.61;92.48;95647.84;5074688;28;20459;-83
2022/12/30 03:18:54;;;;;;;22.17;15.93;;;;;;;6.65;93.36;95654.59;5075718;28;20445;-86
2022/12/30 03:21:24;;;;;;;23.50;14.23;;;;;;;6.64;92.43;95658.09;5075358;28;20441;-85
2022/12/30 03:29:30;;;;;;;21.63;15.03;;;;;;;6.51;92.47;95657.13;5045668;28;20438;-82
2022/12/30 03:31:57;;;;;;;22.43;15.80;;;;;;;6.49;92.42;95653.78;5074355;28;20936;-83
2022/12/30 03:34:27;;;;;;;18.80;13.20;;;;;;;6.46;91.72;95659.16;5075058;28;20893;-81
2022/12/30 03:36:59;;;;;;;23.00;15.80;;;;;;;6.45;92.11;95662.69;5075070;28;20506;-82
2022/12/30 03:39:32;;;;;;;21.70;14.47;;;;;;;6.47;92.20;95658.25;5075342;28;20446;-82
2022/12/30 03:42:00;;;;;;;19.10;14.30;;;;;;;6.46;91.95;95667.81;5074925;28;20458;-82
2022/12/30 03:44:27;;;;;;;18.67;14.10;;;;;;;6.41;92.48;95666.41;5039758;28;20494;-82
2022/12/30 03:46:57;;;;;;;23.77;15.43;;;;;;;6.39;92.39;95669.09;5074606;28;20514;-82
2022/12/30 03:49:24;;;;;;;23.30;14.40;;;;;;;6.34;91.95;95670.25;5075608;28;20458;-89
2022/12/30 03:51:52;;;;;;;25.87;16.23;;;;;;;6.31;92.74;95670.44;5075114;28;20949;-87
2022/12/30 03:54:19;;;;;;;23.27;14.53;;;;;;;6.28;93.82;95673.22;5075013;28;20433;-83
2022/12/30 03:56:45;;;;;;;20.03;13.40;;;;;;;6.27;94.17;95674.97;5075261;28;20442;-88
2022/12/30 03:59:12;;;;;;;19.33;13.30;;;;;;;6.25;93.91;95676.84;5075240;28;20433;-92
2022/12/30 04:01:39;;;;;;;18.43;13.30;;;;;;;6.24;93.01;95676.91;5075130;28;20430;-86
2022/12/30 04:04:06;;;;;;;22.83;14.07;;;;;;;6.22;93.42;95683.06;5073038;28;20884;-92
2022/12/30 04:06:33;;;;;;;20.40;14.40;;;;;;;6.19;93.48;95682.38;5074830;28;20465;-86
2022/12/30 04:09:01;;;;;;;20.40;14.73;;;;;;;6.21;94.08;95688.34;5075278;28;20461;-85
2022/12/30 04:11:28;;;;;;;19.43;14.43;;;;;;;6.20;93.46;95690.13;5074990;28;20840;-85
2022/12/30 04:13:55;;;;;;;19.53;14.63;;;;;;;6.14;92.68;95693.06;5074466;28;20441;-87
2022/12/30 04:16:21;;;;;;;22.10;14.43;;;;;;;6.13;92.91;95693.16;5074048;28;20943;-84
2022/12/30 04:18:48;;;;;;;19.80;13.87;;;;;;;6.03;92.94;95695.41;5074680;28;20449;-85
2022/12/30 04:21:15;;;;;;;19.93;14.33;;;;;;;6.04;92.09;95702.28;5074378;28;20767;-83
2022/12/30 04:23:42;;;;;;;18.67;13.83;;;;;;;6.04;93.06;95698.84;5073891;28;20477;-84
2022/12/30 04:26:10;;;;;;;19.60;14.30;;;;;;;6.08;92.44;95698.63;5074352;28;20489;-83
2022/12/30 04:28:37;;;;;;;18.87;13.13;;;;;;;6.08;92.90;95690.81;5073876;28;20977;-83
2022/12/30 04:31:04;;;;;;;22.10;14.23;;;;;;;6.13;93.14;95701.81;5074488;28;20499;-83
2022/12/30 04:33:31;;;;;;;22.27;15.30;;;;;;;6.14;92.87;95700.88;5074332;28;20458;-84
2022/12/30 04:35:58;;;;;;;20.80;14.63;;;;;;;6.15;92.72;95702.56;5073701;28;20931;-83
2022/12/30 04:38:25;;;;;;;18.90;13.60;;;;;;;6.09;92.82;95702.06;5074144;28;20430;-84
2022/12/30 04:40:52;;;;;;;21.37;14.80;;;;;;;6.07;93.81;95699.53;5071616;28;20469;-83
2022/12/30 04:43:20;;;;;;;28.63;16.30;;;;;;;6.04;93.84;95704.88;5072311;28;21043;-83
2022/12/30 04:45:47;;;;;;;20.77;14.77;;;;;;;6.04;93.52;95702.28;5072693;28;20504;-83
2022/12/30 04:48:14;;;;;;;24.30;16.07;;;;;;;6.01;94.01;95702.47;5072667;28;20438;-83
2022/12/30 04:50:42;;;;;;;24.30;16.23;;;;;;;5.97;93.92;95708.75;5072607;28;20877;-84
2022/12/30 04:53:09;;;;;;;23.40;15.47;;;;;;;5.97;93.61;95703.53;5072415;28;20446;-84
2022/12/30 04:55:36;;;;;;;22.53;15.17;;;;;;;6.00;93.59;95707.75;5072681;28;20458;-83
2022/12/30 04:58:04;;;;;;;22.40;16.57;;;;;;;6.00;93.82;95708.59;5037495;28;20446;-84
2022/12/30 05:00:32;;;;;;;19.83;14.30;;;;;;;5.99;93.95;95709.50;5072264;28;20805;-84
2022/12/30 05:02:59;;;;;;;21.17;14.80;;;;;;;6.01;94.07;95707.66;5072864;28;20451;-84
2022/12/30 05:05:26;;;;;;;21.40;13.80;;;;;;;6.03;94.35;95716.25;5037181;28;20490;-84
2022/12/30 05:07:53;;;;;;;21.37;13.07;;;;;;;6.01;93.99;95717.25;5072363;28;20849;-83
2022/12/30 05:10:20;;;;;;;18.30;13.90;;;;;;;6.04;94.01;95719.69;5037292;28;20515;-84
2022/12/30 05:12:47;;;;;;;21.37;13.73;;;;;;;6.04;95.15;95717.91;5072621;28;20981;-84
2022/12/30 05:15:14;;;;;;;20.83;14.33;;;;;;;6.07;94.83;95720.38;5072435;28;20465;-83
2022/12/30 05:17:42;;;;;;;18.73;13.73;;;;;;;6.06;94.85;95718.69;5072622;28;20547;-84
2022/12/30 05:20:10;;;;;;;21.53;12.20;;;;;;;6.11;94.56;95726.28;5072218;28;20446;-83
2022/12/30 05:22:36;;;;;;;18.23;12.03;;;;;;;6.11;94.75;95723.66;5037285;28;20941;-84
2022/12/30 05:27:48;;;;;;;19.70;13.17;;;;;;;5.99;94.50;95722.53;5072752;28;20922;-83
2022/12/30 05:30:15;;;;;;;20.20;13.47;;;;;;;5.98;94.33;95720.84;5072278;28;20446;-83
2022/12/30 05:32:43;;;;;;;22.60;13.50;;;;;;;5.93;94.15;95722.03;5072302;28;20454;-84
2022/12/30 05:35:10;;;;;;;19.40;12.80;;;;;;;5.92;93.28;95733.38;5071943;28;20868;-84
2022/12/30 05:37:37;;;;;;;20.87;14.20;;;;;;;5.92;94.31;95731.59;5072598;28;21005;-83
2022/12/30 05:40:05;;;;;;;22.90;16.40;;;;;;;5.92;94.62;95734.22;5072246;28;20440;-84
2022/12/30 05:42:32;;;;;;;20.57;13.10;;;;;;;5.95;94.96;95741.88;5072625;28;20520;-83
2022/12/30 05:44:58;;;;;;;19.10;13.47;;;;;;;5.96;94.06;95740.94;5037305;28;20493;-84
2022/12/30 05:47:25;;;;;;;25.10;15.47;;;;;;;5.98;93.98;95741.69;5076361;28;20449;-83
2022/12/30 05:49:53;;;;;;;20.87;13.73;;;;;;;5.98;93.89;95741.69;5076128;28;20472;-84
2022/12/30 05:52:20;;;;;;;23.23;16.67;;;;;;;6.02;93.87;95737.16;5076607;28;20868;-84
2022/12/30 05:54:47;;;;;;;24.67;14.47;;;;;;;5.99;94.06;95742.53;5076284;28;20461;-83
2022/12/30 05:57:14;;;;;;;26.33;16.03;;;;;;;5.97;93.84;95740.00;5080042;28;20943;-84
2022/12/30 05:59:41;;;;;;;22.83;15.20;;;;;;;5.94;93.78;95742.78;5079759;28;20433;-83
2022/12/30 06:02:07;;;;;;;19.50;14.87;;;;;;;5.88;94.25;95740.47;5080868;28;20482;-83
2022/12/30 06:04:34;;;;;;;19.37;14.70;;;;;;;5.91;93.95;95745.56;5080971;28;20485;-84
2022/12/30 06:07:02;;;;;;;17.93;12.60;;;;;;;5.90;93.85;95754.28;5080530;28;20499;-83
2022/12/30 06:09:29;;;;;;;17.63;13.87;;;;;;;5.86;93.48;95750.13;5044563;28;20446;-84
2022/12/30 06:11:56;;;;;;;25.73;14.63;;;;;;;5.89;93.80;95744.78;5078235;28;20450;-83
2022/12/30 06:14:23;;;;;;;18.93;14.23;;;;;;;5.92;93.80;95744.63;5077872;28;20437;-84
2022/12/30 06:16:50;;;;;;;21.70;13.50;;;;;;;5.92;93.58;95746.41;5077881;28;20919;-83
2022/12/30 06:19:16;;;;;;;25.77;14.40;;;;;;;5.90;93.61;95752.53;5080119;28;20471;-84
2022/12/30 06:21:43;;;;;;;18.13;13.73;;;;;;;5.92;93.59;95752.44;5080235;28;20446;-84
2022/12/30 06:24:11;;;;;;;20.60;14.90;;;;;;;5.89;93.37;95749.97;5077686;28;20480;-83
2022/12/30 06:26:38;;;;;;;19.17;14.40;;;;;;;5.87;93.41;95752.66;5076344;28;20794;-84
2022/12/30 06:29:05;;;;;;;20.87;13.90;;;;;;;5.88;93.88;95761.31;5041684;28;20481;-83
2022/12/30 06:31:32;;;;;;;21.60;16.23;;;;;;;5.87;94.15;95765.69;5076423;28;20943;-83
2022/12/30 06:33:59;;;;;;;20.10;15.17;;;;;;;5.87;94.02;95762.25;5076210;28;20441;-84
2022/12/30 06:36:25;;;;;;;21.13;14.90;;;;;;;5.90;93.85;95765.56;5077389;28;20445;-83
2022/12/30 06:38:52;;;;;;;21.87;15.60;;;;;;;5.95;94.47;95769.69;5078364;28;20452;-83
2022/12/30 06:41:20;;;;;;;23.63;17.00;;;;;;;5.90;93.86;95768.16;5084728;28;20447;-82
2022/12/30 06:43:47;;;;;;;31.17;20.80;;;;;;;5.92;93.71;95773.28;5085579;28;21048;-83
2022/12/30 06:46:14;;;;;;;32.97;21.73;;;;;;;5.91;93.81;95769.00;5086352;28;20530;-83
2022/12/30 06:48:41;;;;;;;30.77;21.57;;;;;;;5.88;93.99;95769.13;5086789;28;20436;-83
2022/12/30 06:51:07;;;;;;;22.87;15.80;;;;;;;5.95;94.23;95772.28;5086689;28;20491;-84
2022/12/30 06:53:34;;;;;;;29.03;17.57;;;;;;;5.99;93.33;95774.63;5091657;28;20424;-81
2022/12/30 06:56:01;;;;;;;25.17;18.13;;;;;;;6.04;93.57;95787.41;5093453;28;20516;-83
2022/12/30 06:58:29;;;;;;;22.90;17.60;;;;;;;6.08;93.71;95783.75;5092587;28;20823;-83
2022/12/30 07:00:56;;;;;;;23.03;18.27;;;;;;;6.09;92.95;95783.69;5076777;28;20433;-82
2022/12/30 07:03:23;;;;;;;22.60;17.70;;;;;;;6.03;91.99;95781.38;5094840;28;20479;-82
2022/12/30 07:05:53;;;;;;;28.40;16.33;;;;;;;6.03;91.77;95791.78;5095309;28;20484;-82
2022/12/30 07:08:19;;;;;;;23.70;18.23;;;;;;;6.07;92.80;95787.25;5093758;28;20445;-83
2022/12/30 07:10:46;;;;;;;25.20;17.50;;;;;;;6.03;92.50;95796.16;5096403;28;20448;-82
2022/12/30 07:13:14;;;;;;;23.30;18.33;;;;;;;6.09;91.91;95795.88;5095992;28;20437;-81
2022/12/30 07:15:42;;;;;;;25.43;17.43;;;;;;;6.04;92.40;95788.25;5095197;28;20896;-83
2022/12/30 07:18:09;;;;;;;31.53;17.57;;;;;;;6.06;92.38;95798.59;5092358;28;20460;-82
2022/12/30 07:20:36;;;;;;;29.03;19.87;;;;;;;6.09;93.33;95801.91;5091656;28;20445;-81
2022/12/30 07:23:03;;;;;;;27.77;20.63;;;;;;;6.09;92.77;95795.88;5057379;28;20441;-82
2022/12/30 07:25:29;;;;;;;30.33;20.20;;;;;;;6.11;92.66;95805.28;5091288;28;20488;-80
2022/12/30 07:28:00;;;;;;;31.70;22.03;;;;;;;6.15;92.54;95801.59;5086355;28;20453;-84
2022/12/30 07:30:28;;;;;;;30.80;21.93;;;;;;;6.22;92.42;95796.88;5076536;28;20445;-84
2022/12/30 07:32:56;;;;;;;41.77;22.73;;;;;;;6.30;92.45;95788.66;5077824;28;20496;-83
2022/12/30 07:35:23;;;;;;;32.43;21.73;;;;;;;6.40;91.80;95795.06;5075923;28;20429;-83
2022/12/30 07:37:50;;;;;;;34.50;20.87;;;;;;;6.49;92.19;95799.78;5077134;28;20533;-83
2022/12/30 07:40:17;;;;;;;35.47;23.30;;;;;;;6.57;91.81;95794.97;5076727;28;20514;-83
2022/12/30 07:42:44;;;;;;;38.47;24.70;;;;;;;6.65;91.74;95798.03;5078434;28;20471;-83
2022/12/30 07:45:14;;;;;;;33.20;20.90;;;;;;;6.77;92.02;95797.34;5073696;28;20497;-83
2022/12/30 07:47:43;;;;;;;33.70;21.20;;;;;;;6.89;91.93;95790.59;5074301;28;20441;-83
2022/12/30 07:50:11;;;;;;;34.80;19.53;;;;;;;7.01;91.40;95800.34;5074178;28;20540;-83
2022/12/30 07:52:38;;;;;;;29.63;19.60;;;;;;;7.13;91.23;95802.25;5074309;28;20430;-83
2022/12/30 07:55:06;;;;;;;25.60;15.43;;;;;;;7.18;90.92;95799.38;5074072;28;20451;-84
2022/12/30 07:57:33;;;;;;;21.70;14.33;;;;;;;7.29;90.58;95802.25;5074998;28;20431;-83
2022/12/30 08:00:00;;;;;;;24.23;16.17;;;;;;;7.37;90.51;95801.78;5075178;28;20453;-84
2022/12/30 08:02:27;;;;;;;43.77;27.50;;;;;;;7.45;90.26;95796.97;5074365;28;20446;-84
2022/12/30 08:04:53;;;;;;;64.70;37.50;;;;;;;7.54;90.85;95790.38;5073650;28;20984;-83
2022/12/30 08:07:22;;;;;;;50.27;33.90;;;;;;;7.62;90.79;95799.44;5073629;28;20450;-84
2022/12/30 08:09:49;;;;;;;54.60;36.20;;;;;;;7.66;91.66;95794.88;5073628;28;20560;-83
2022/12/30 08:12:15;;;;;;;55.30;37.23;;;;;;;7.75;91.60;95799.53;5073832;28;20449;-83
2022/12/30 08:14:42;;;;;;;50.13;35.30;;;;;;;7.84;91.66;95796.41;5073662;28;20457;-83
2022/12/30 08:17:12;;;;;;;52.87;35.10;;;;;;;7.89;91.36;95786.53;5073783;28;20785;-83
2022/12/30 08:19:39;;;;;;;50.20;34.87;;;;;;;7.96;91.22;95785.22;5072795;28;20444;-84
2022/12/30 08:22:05;;;;;;;54.07;36.93;;;;;;;8.00;91.04;95794.53;5073309;28;20514;-83
2022/12/30 08:24:34;;;;;;;51.33;33.93;;;;;;;7.92;91.13;95788.94;5073690;28;20452;-84
2022/12/30 08:27:00;;;;;;;76.37;45.53;;;;;;;7.93;91.87;95797.63;5075380;28;20447;-83
2022/12/30 08:29:27;;;;;;;76.57;49.20;;;;;;;7.84;92.86;95798.19;5074521;28;20494;-83
2022/12/30 08:31:57;;;;;;;64.80;43.87;;;;;;;7.79;94.22;95795.81;5074531;28;20454;-84
2022/12/30 08:34:24;;;;;;;64.07;37.53;;;;;;;7.87;94.40;95796.22;5073953;28;20443;-84
2022/12/30 08:36:51;;;;;;;51.27;34.57;;;;;;;7.72;95.61;95794.50;5075298;28;20450;-84
2022/12/30 08:39:18;;;;;;;58.40;37.97;;;;;;;7.66;96.36;95802.72;5075693;28;20443;-83
2022/12/30 08:41:47;;;;;;;55.10;37.67;;;;;;;7.81;95.85;95793.16;5074622;28;20452;-82
2022/12/30 08:44:16;;;;;;;55.00;34.10;;;;;;;7.81;95.85;95799.22;5073634;28;20867;-84
2022/12/30 08:46:43;;;;;;;49.90;32.03;;;;;;;7.78;95.36;95799.38;5072647;28;20493;-83
2022/12/30 08:49:13;;;;;;;47.50;31.00;;;;;;;7.77;96.21;95792.47;5074051;28;20446;-83
2022/12/30 08:51:40;;;;;;;49.07;30.43;;;;;;;7.69;96.29;95802.53;5074263;28;20495;-83
2022/12/30 08:54:07;;;;;;;51.77;30.30;;;;;;;7.61;97.18;95794.31;5073204;28;20453;-83
2022/12/30 08:56:37;;;;;;;43.70;30.93;;;;;;;7.68;96.80;95803.47;5073055;28;20460;-82
2022/12/30 08:59:05;;;;;;;51.93;32.90;;;;;;;7.51;98.00;95806.19;5073292;28;20454;-83
2022/12/30 09:01:36;;;;;;;54.93;35.73;;;;;;;7.48;98.49;95802.00;5054317;28;20474;-83
2022/12/30 09:04:06;;;;;;;52.20;34.33;;;;;;;7.56;97.83;95799.81;5072885;28;20529;-83
2022/12/30 09:06:35;;;;;;;53.00;35.57;;;;;;;7.72;97.86;95794.50;5072687;28;20478;-83
2022/12/30 09:09:04;;;;;;;49.90;33.03;;;;;;;7.76;97.28;95788.16;5072982;28;20454;-83
2022/12/30 09:11:33;;;;;;;52.47;33.43;;;;;;;7.88;97.17;95791.84;5073218;28;20451;-82
2022/12/30 09:14:02;;;;;;;51.00;34.53;;;;;;;7.97;98.23;95784.28;5073391;28;20825;-83
2022/12/30 09:16:30;;;;;;;58.17;39.23;;;;;;;7.89;96.44;95786.53;5073672;28;20448;-82
2022/12/30 09:18:58;;;;;;;57.07;38.47;;;;;;;7.93;97.01;95781.94;5075377;28;20513;-83
2022/12/30 09:21:26;;;;;;;58.60;37.73;;;;;;;8.14;96.29;95775.44;5073535;28;20463;-83
2022/12/30 09:23:53;;;;;;;57.93;40.40;;;;;;;8.28;96.43;95779.81;5072708;28;20438;-82
2022/12/30 09:26:21;;;;;;;56.87;39.63;;;;;;;8.37;95.23;95776.63;5073399;28;20986;-82
2022/12/30 09:28:48;;;;;;;61.77;39.50;;;;;;;8.45;95.01;95778.81;5072270;28;20445;-83
2022/12/30 09:31:15;;;;;;;66.27;41.90;;;;;;;8.55;94.76;95778.13;5075859;28;20947;-83
2022/12/30 09:33:43;;;;;;;55.60;36.43;;;;;;;8.59;93.51;95777.00;5076326;28;20502;-83
2022/12/30 09:36:11;;;;;;;58.73;41.97;;;;;;;8.58;93.30;95780.53;5041224;28;20445;-83
2022/12/30 09:38:38;;;;;;;53.93;38.07;;;;;;;8.66;93.97;95778.28;5076314;28;20497;-83
2022/12/30 09:41:08;;;;;;;60.40;40.90;;;;;;;8.83;92.58;95768.53;5076236;28;20570;-83
2022/12/30 09:43:41;;;;;;;64.17;38.93;;;;;;;8.93;92.44;95767.00;5076269;28;20482;-83
2022/12/30 09:46:25;;;;;;;50.80;32.73;;;;;;;9.09;90.85;95759.84;5077118;28;21021;-85
2022/12/30 09:49:00;;;;;;;57.70;35.87;;;;;;;9.19;90.09;95760.06;5076162;28;20514;-83
2022/12/30 09:51:31;;;;;;;65.53;37.13;;;;;;;9.28;89.92;95756.88;5076458;28;20440;-84
2022/12/30 09:54:04;;;;;;;57.53;37.63;;;;;;;9.39;89.77;95757.00;5076076;28;20536;-82
2022/12/30 09:56:34;;;;;;;71.43;38.60;;;;;;;9.54;89.83;95752.50;5076193;28;20856;-82
2022/12/30 09:59:10;;;;;;;59.97;39.40;;;;;;;9.66;89.33;95749.06;5040813;28;20498;-81
2022/12/30 10:01:42;;;;;;;49.80;33.07;;;;;;;9.77;87.37;95745.72;5075838;28;20534;-82
2022/12/30 10:04:15;;;;;;;59.80;34.70;;;;;;;9.80;86.86;95746.34;5041172;28;20504;-83
2022/12/30 10:06:51;;;;;;;51.43;32.93;;;;;;;9.81;87.18;95741.94;5075775;28;20527;-82
2022/12/30 10:09:45;;;;;;;51.63;33.23;;;;;;;9.85;86.37;95735.56;5040238;28;20865;-82
2022/12/30 10:12:43;;;;;;;49.23;32.57;;;;;;;9.80;87.28;95738.47;5075703;28;20449;-82
2022/12/30 10:15:24;;;;;;;53.53;34.37;;;;;;;9.85;86.44;95731.16;5075319;28;20441;-82
2022/12/30 10:18:07;;;;;;;49.53;33.60;;;;;;;9.89;86.47;95723.94;5075329;28;20514;-82
2022/12/30 10:20:49;;;;;;;46.90;33.00;;;;;;;10.01;86.92;95725.69;5075928;28;20445;-82
2022/12/30 10:23:26;;;;;;;56.33;33.07;;;;;;;10.11;85.92;95723.25;5075466;28;20452;-82
2022/12/30 10:26:02;;;;;;;50.63;31.40;;;;;;;10.07;86.44;95721.78;5075623;28;20485;-82
2022/12/30 10:28:35;;;;;;;58.53;33.07;;;;;;;10.06;85.41;95717.50;5075147;28;20446;-81
2022/12/30 10:31:03;;;;;;;46.17;33.43;;;;;;;10.07;85.34;95716.56;5076244;28;20496;-81
2022/12/30 10:33:34;;;;;;;50.70;32.30;;;;;;;10.12;85.86;95722.31;5075846;28;20453;-82
2022/12/30 10:36:13;;;;;;;49.20;32.47;;;;;;;9.99;85.67;95717.09;5075083;28;20452;-82
2022/12/30 10:38:41;;;;;;;45.03;31.27;;;;;;;10.12;87.25;95701.31;5075113;28;20870;-83
2022/12/30 10:41:22;;;;;;;41.50;30.73;;;;;;;10.16;86.09;95694.94;5055750;28;20441;-83
2022/12/30 10:44:01;;;;;;;49.30;32.97;;;;;;;10.22;85.60;95692.75;5075928;28;20474;-82
2022/12/30 10:46:44;;;;;;;52.47;30.97;;;;;;;10.19;85.74;95682.44;5076384;28;20493;-82
2022/12/30 10:49:35;;;;;;;43.30;28.90;;;;;;;10.17;86.54;95686.97;5075420;28;20445;-83
2022/12/30 10:52:04;;;;;;;44.57;28.27;;;;;;;10.31;86.39;95683.38;5075201;28;20439;-82
2022/12/30 10:54:31;;;;;;;35.90;27.40;;;;;;;10.43;86.09;95682.53;5074967;28;20454;-82
2022/12/30 10:56:57;;;;;;;39.67;27.30;;;;;;;10.47;85.39;95677.91;5075134;28;20451;-83
2022/12/30 10:59:28;;;;;;;49.83;28.27;;;;;;;10.54;84.86;95679.13;5074774;28;20500;-82
2022/12/30 11:02:00;;;;;;;40.77;27.90;;;;;;;10.41;84.34;95666.06;5074888;28;20446;-82
2022/12/30 11:04:35;;;;;;;39.07;27.73;;;;;;;10.47;84.58;95670.88;5074513;28;20436;-82
2022/12/30 11:07:05;;;;;;;36.37;25.90;;;;;;;10.55;84.79;95658.03;5074337;28;20534;-82
2022/12/30 11:09:32;;;;;;;40.20;26.10;;;;;;;10.50;83.89;95668.03;5074558;28;20852;-82
2022/12/30 11:14:55;;;;;;;42.03;26.97;;;;;;;10.61;83.97;95655.91;5074383;28;20460;-83
2022/12/30 11:17:26;;;;;;;40.43;25.43;;;;;;;10.69;83.12;95653.53;5055532;28;20502;-82
2022/12/30 11:19:54;;;;;;;38.80;25.40;;;;;;;10.73;83.47;95650.59;5074491;28;20444;-82
2022/12/30 11:22:24;;;;;;;40.23;27.57;;;;;;;10.70;82.67;95650.84;5074502;28;20497;-82
2022/12/30 11:24:59;;;;;;;49.47;29.57;;;;;;;10.81;83.34;95655.28;5074105;28;20450;-83
2022/12/30 11:27:36;;;;;;;47.40;27.07;;;;;;;10.81;82.28;95655.28;5074234;28;20478;-83
2022/12/30 11:30:04;;;;;;;40.10;25.83;;;;;;;10.80;81.85;95658.88;5074149;28;20504;-83
2022/12/30 11:32:31;;;;;;;37.43;24.30;;;;;;;10.67;82.72;95652.81;5074049;28;20443;-82
2022/12/30 11:34:58;;;;;;;28.43;23.20;;;;;;;10.61;82.78;95653.28;5073975;28;20446;-83
2022/12/30 11:37:35;;;;;;;38.63;26.43;;;;;;;10.64;81.91;95653.03;5073917;28;20471;-83
2022/12/30 11:40:25;;;;;;;35.03;23.77;;;;;;;10.85;82.19;95651.47;5073986;28;20912;-83
2022/12/30 11:43:09;;;;;;;39.53;23.23;;;;;;;10.86;80.64;95647.91;5074063;28;20841;-82
2022/12/30 11:45:40;;;;;;;42.43;27.10;;;;;;;10.90;80.57;95649.34;5074128;28;20501;-84
2022/12/30 11:48:20;;;;;;;35.60;24.17;;;;;;;10.92;81.00;95649.25;5073627;28;20468;-83
2022/12/30 11:50:53;;;;;;;35.47;24.50;;;;;;;10.98;80.08;95646.16;5073954;28;20857;-83
2022/12/30 11:53:25;;;;;;;47.47;26.47;;;;;;;11.04;81.50;95641.31;5073263;28;20500;-83
2022/12/30 11:55:53;;;;;;;36.10;25.30;;;;;;;11.17;80.46;95634.16;5073717;28;20511;-83
2022/12/30 11:58:21;;;;;;;37.27;26.43;;;;;;;11.32;79.94;95636.59;5073440;28;20448;-82
2022/12/30 12:00:56;;;;;;;44.97;25.97;;;;;;;11.45;80.57;95635.53;5073453;28;20500;-82
2022/12/30 12:03:24;;;;;;;45.10;26.83;;;;;;;11.42;78.80;95638.41;5073478;28;20535;-83
2022/12/30 12:06:04;;;;;;;37.17;24.27;;;;;;;11.50;78.93;95653.56;5073310;28;20837;-83
2022/12/30 12:08:35;;;;;;;43.13;25.07;;;;;;;11.50;78.30;95643.06;5038107;28;20451;-83
2022/12/30 12:11:06;;;;;;;41.30;25.90;;;;;;;11.57;78.04;95628.53;5005681;28;20547;-83
2022/12/30 12:13:43;;;;;;;34.83;24.20;;;;;;;11.54;78.39;95634.00;5073085;28;20448;-82
2022/12/30 12:16:15;;;;;;;45.47;25.47;;;;;;;11.60;77.94;95638.81;5073438;28;20448;-82
2022/12/30 12:18:45;;;;;;;39.27;24.83;;;;;;;11.70;78.41;95638.91;5073400;28;20516;-83
2022/12/30 12:21:21;;;;;;;37.80;27.80;;;;;;;11.61;77.91;95635.22;5073389;28;20999;-82
2022/12/30 12:23:55;;;;;;;41.33;26.90;;;;;;;11.65;77.10;95631.41;5072834;28;20799;-82
2022/12/30 12:26:24;;;;;;;43.30;28.73;;;;;;;11.69;77.42;95643.34;5072739;28;20491;-82
2022/12/30 12:28:53;;;;;;;54.57;30.23;;;;;;;11.75;76.78;95642.84;5073123;28;20440;-83